createdAt,value
2022-10-15T00:01:48.097Z,3.10
2022-10-15T00:04:19.146Z,2.53
2022-10-15T00:06:47.247Z,5.25
2022-10-15T00:09:15.384Z,2.63
2022-10-15T00:11:43.460Z,6.30
2022-10-15T00:14:11.544Z,2.47
2022-10-15T00:16:40.972Z,2.40
2022-10-15T00:19:10.317Z,3.83
2022-10-15T00:21:38.764Z,4.30
2022-10-15T00:24:08.183Z,3.28
2022-10-15T00:26:36.469Z,2.53
2022-10-15T00:29:05.695Z,4.20
2022-10-15T00:31:34.733Z,2.13
2022-10-15T00:34:04.765Z,2.63
2022-10-15T00:36:35.906Z,2.92
2022-10-15T00:39:09.205Z,2.85
2022-10-15T00:41:42.830Z,4.95
2022-10-15T00:44:52.516Z,2.08
2022-10-15T00:47:29.100Z,3.33
2022-10-15T00:50:07.117Z,4.68
2022-10-15T00:52:44.778Z,3.05
2022-10-15T00:55:18.699Z,4.10
2022-10-15T00:57:50.999Z,2.97
2022-10-15T01:00:20.572Z,2.63
2022-10-15T01:02:49.325Z,2.13
2022-10-15T01:05:20.483Z,1.52
2022-10-15T01:07:48.673Z,2.13
2022-10-15T01:10:19.978Z,1.98
2022-10-15T01:13:12.608Z,3.75
2022-10-15T01:15:50.041Z,1.63
2022-10-15T01:18:25.517Z,2.03
2022-10-15T01:21:10.052Z,1.92
2022-10-15T01:24:29.994Z,1.88
2022-10-15T01:27:26.676Z,1.77
2022-10-15T01:30:26.951Z,1.23
2022-10-15T01:33:14.525Z,1.00
2022-10-15T01:35:51.109Z,2.20
2022-10-15T01:38:34.311Z,2.08
2022-10-15T01:41:11.239Z,1.10
2022-10-15T01:43:49.158Z,1.50
2022-10-15T01:46:39.042Z,1.08
2022-10-15T01:49:14.461Z,4.07
2022-10-15T01:51:46.247Z,0.80
2022-10-15T01:54:19.951Z,2.33
2022-10-15T01:56:51.308Z,0.80
2022-10-15T01:59:27.640Z,1.65
2022-10-15T02:01:58.408Z,2.80
2022-10-15T02:04:29.566Z,0.98
2022-10-15T02:07:06.469Z,0.80
2022-10-15T02:09:49.833Z,2.08
2022-10-15T02:12:43.226Z,1.05
2022-10-15T02:15:19.669Z,3.88
2022-10-15T02:18:02.231Z,1.98
2022-10-15T02:20:41.569Z,2.55
2022-10-15T02:23:18.887Z,0.80
2022-10-15T02:25:49.677Z,1.38
2022-10-15T02:28:19.647Z,1.20
2022-10-15T02:30:53.190Z,3.33
2022-10-15T02:33:25.177Z,0.82
2022-10-15T02:35:54.918Z,0.98
2022-10-15T02:38:26.731Z,3.00
2022-10-15T02:40:55.852Z,1.25
2022-10-15T02:43:24.898Z,0.60
2022-10-15T02:45:53.138Z,1.90
2022-10-15T02:48:23.839Z,0.55
2022-10-15T02:50:52.027Z,0.68
2022-10-15T02:53:20.161Z,3.85
2022-10-15T02:55:48.363Z,1.67
2022-10-15T02:58:16.504Z,0.43
2022-10-15T03:00:45.601Z,0.43
2022-10-15T03:03:14.437Z,2.25
2022-10-15T03:05:45.745Z,1.02
2022-10-15T03:08:14.369Z,1.85
2022-10-15T03:10:42.596Z,0.80
2022-10-15T03:13:10.749Z,1.05
2022-10-15T03:15:46.471Z,0.50
2022-10-15T03:18:16.399Z,2.17
2022-10-15T03:20:47.279Z,0.20
2022-10-15T03:23:17.702Z,0.30
2022-10-15T03:25:46.495Z,1.60
2022-10-15T03:28:23.717Z,1.85
2022-10-15T03:30:52.189Z,0.57
2022-10-15T03:33:23.095Z,1.83
2022-10-15T03:35:55.527Z,1.77
2022-10-15T03:38:24.372Z,1.58
2022-10-15T03:40:53.965Z,0.60
2022-10-15T03:43:31.044Z,1.98
2022-10-15T03:46:03.911Z,0.77
2022-10-15T03:48:33.048Z,0.57
2022-10-15T03:51:02.557Z,0.40
2022-10-15T03:53:30.804Z,1.38
2022-10-15T03:56:05.613Z,0.95
2022-10-15T03:58:34.690Z,0.88
2022-10-15T04:01:11.309Z,1.88
2022-10-15T04:03:40.505Z,2.67
2022-10-15T04:06:11.292Z,0.88
2022-10-15T04:08:40.635Z,3.53
2022-10-15T04:11:21.848Z,0.85
2022-10-15T04:13:59.726Z,1.02
2022-10-15T04:16:28.030Z,0.77
2022-10-15T04:18:57.701Z,2.53
2022-10-15T04:21:27.629Z,1.08
2022-10-15T04:24:00.621Z,1.45
2022-10-15T04:26:35.567Z,2.00
2022-10-15T04:29:05.096Z,1.00
2022-10-15T04:31:33.739Z,0.52
2022-10-15T04:34:03.007Z,1.15
2022-10-15T04:36:32.778Z,1.70
2022-10-15T04:39:10.889Z,3.38
2022-10-15T04:41:43.972Z,1.45
2022-10-15T04:44:18.445Z,1.95
2022-10-15T04:46:53.061Z,2.05
2022-10-15T04:49:32.826Z,0.40
2022-10-15T04:52:04.747Z,0.30
2022-10-15T04:54:42.531Z,1.13
2022-10-15T04:57:10.905Z,1.80
2022-10-15T04:59:39.136Z,1.77
2022-10-15T05:02:28.037Z,1.90
2022-10-15T05:05:09.716Z,3.67
2022-10-15T05:07:48.592Z,3.92
2022-10-15T05:10:17.215Z,2.75
2022-10-15T05:12:47.221Z,1.45
2022-10-15T05:15:21.512Z,3.45
2022-10-15T05:17:49.654Z,2.83
2022-10-15T05:20:18.550Z,1.10
2022-10-15T05:22:48.830Z,2.70
2022-10-15T05:25:17.282Z,4.00
2022-10-15T05:27:45.437Z,2.60
2022-10-15T05:30:14.160Z,2.38
2022-10-15T05:32:53.847Z,1.38
2022-10-15T05:35:23.839Z,1.70
2022-10-15T05:38:01.258Z,1.52
2022-10-15T05:40:29.449Z,1.50
2022-10-15T05:43:20.132Z,4.45
2022-10-15T05:45:50.603Z,1.83
2022-10-15T05:48:19.771Z,3.03
2022-10-15T05:50:48.528Z,4.25
2022-10-15T05:53:24.857Z,3.63
2022-10-15T05:55:58.590Z,2.33
2022-10-15T05:58:36.530Z,3.25
2022-10-15T06:01:09.278Z,2.28
2022-10-15T06:03:41.484Z,2.17
2022-10-15T06:06:16.426Z,0.95
2022-10-15T06:08:46.097Z,3.10
2022-10-15T06:11:14.863Z,0.80
2022-10-15T06:13:45.323Z,1.35
2022-10-15T06:16:19.396Z,2.40
2022-10-15T06:18:52.173Z,0.93
2022-10-15T06:21:20.370Z,1.45
2022-10-15T06:23:49.840Z,0.50
2022-10-15T06:26:18.087Z,1.55
2022-10-15T06:28:49.420Z,1.10
2022-10-15T06:31:17.608Z,1.60
2022-10-15T06:33:45.846Z,2.90
2022-10-15T06:36:15.113Z,1.00
2022-10-15T06:38:44.646Z,1.83
2022-10-15T06:41:14.175Z,1.42
2022-10-15T06:43:42.414Z,0.70
2022-10-15T06:46:11.842Z,0.80
2022-10-15T06:48:39.929Z,3.28
2022-10-15T06:51:08.378Z,2.35
2022-10-15T06:53:37.088Z,1.02
2022-10-15T06:56:06.137Z,2.50
2022-10-15T06:58:43.453Z,1.25
2022-10-15T07:01:11.753Z,1.13
2022-10-15T07:03:40.006Z,1.45
2022-10-15T07:06:10.818Z,2.25
2022-10-15T07:08:38.942Z,1.77
2022-10-15T07:11:09.716Z,1.02
2022-10-15T07:13:38.376Z,1.67
2022-10-15T07:16:11.125Z,2.85
2022-10-15T07:18:40.700Z,4.07
2022-10-15T07:23:39.141Z,5.38
2022-10-15T07:26:07.328Z,1.83
2022-10-15T07:28:35.490Z,1.33
2022-10-15T07:31:08.528Z,1.13
2022-10-15T07:33:36.912Z,0.82
2022-10-15T07:36:06.468Z,0.68
2022-10-15T07:38:34.812Z,2.25
2022-10-15T07:41:05.400Z,2.70
2022-10-15T07:43:41.757Z,1.85
2022-10-15T07:46:12.112Z,0.80
2022-10-15T07:48:40.360Z,2.42
2022-10-15T07:51:08.858Z,3.30
2022-10-15T07:53:37.096Z,0.70
2022-10-15T07:56:11.191Z,0.30
2022-10-15T07:58:39.921Z,0.52
2022-10-15T08:01:11.842Z,0.50
2022-10-15T08:03:40.034Z,0.50
2022-10-15T08:06:09.224Z,0.73
2022-10-15T08:08:38.301Z,0.60
2022-10-15T08:11:07.878Z,1.17
2022-10-15T08:13:36.164Z,0.63
2022-10-15T08:16:04.693Z,2.88
2022-10-15T08:18:34.787Z,1.95
2022-10-15T08:21:03.070Z,1.73
2022-10-15T08:23:31.348Z,0.98
2022-10-15T08:26:00.516Z,1.35
2022-10-15T08:28:29.845Z,2.92
2022-10-15T08:31:02.757Z,1.27
2022-10-15T08:33:35.985Z,1.02
2022-10-15T08:36:06.512Z,1.85
2022-10-15T08:38:36.094Z,0.75
2022-10-15T08:41:15.415Z,0.77
2022-10-15T08:43:47.453Z,0.95
2022-10-15T08:46:23.380Z,3.10
2022-10-15T08:48:59.265Z,0.30
2022-10-15T08:51:39.262Z,1.55
2022-10-15T08:54:12.352Z,1.90
2022-10-15T08:56:46.611Z,0.55
2022-10-15T08:59:39.453Z,0.82
2022-10-15T09:02:19.782Z,2.38
2022-10-15T09:04:57.366Z,0.50
2022-10-15T09:07:40.001Z,2.50
2022-10-15T09:10:18.274Z,1.38
2022-10-15T09:12:58.653Z,1.67
2022-10-15T09:15:33.043Z,2.60
2022-10-15T09:18:01.248Z,1.88
2022-10-15T09:20:37.838Z,0.40
2022-10-15T09:23:19.705Z,0.68
2022-10-15T09:25:57.864Z,5.13
2022-10-15T09:28:43.968Z,0.63
2022-10-15T09:31:18.717Z,3.15
2022-10-15T09:33:53.264Z,1.40
2022-10-15T09:36:40.137Z,0.85
2022-10-15T09:39:36.321Z,1.95
2022-10-15T09:42:22.638Z,1.58
2022-10-15T09:44:53.807Z,1.15
2022-10-15T09:47:28.703Z,1.25
2022-10-15T09:50:02.521Z,2.70
2022-10-15T09:52:53.849Z,0.55
2022-10-15T09:55:38.067Z,0.40
2022-10-15T09:58:13.496Z,0.73
2022-10-15T10:01:01.843Z,2.67
2022-10-15T10:03:37.830Z,3.88
2022-10-15T10:06:10.181Z,1.95
2022-10-15T10:08:52.416Z,1.20
2022-10-15T10:11:22.943Z,1.23
2022-10-15T10:13:58.749Z,1.15
2022-10-15T10:16:30.068Z,1.42
2022-10-15T10:19:13.205Z,0.50
2022-10-15T10:21:46.038Z,1.38
2022-10-15T10:24:31.665Z,0.85
2022-10-15T10:27:01.337Z,0.90
2022-10-15T10:29:35.107Z,0.95
2022-10-15T10:32:18.223Z,3.10
2022-10-15T10:34:52.222Z,2.75
2022-10-15T10:37:21.649Z,1.35
2022-10-15T10:39:58.132Z,0.57
2022-10-15T10:42:34.211Z,1.50
2022-10-15T10:45:22.002Z,2.55
2022-10-15T10:47:51.057Z,0.75
2022-10-15T10:50:32.597Z,0.68
2022-10-15T10:53:22.598Z,1.67
2022-10-15T10:55:55.578Z,0.40
2022-10-15T10:58:33.010Z,2.58
2022-10-15T11:01:01.693Z,1.30
2022-10-15T11:03:38.187Z,1.63
2022-10-15T11:06:43.657Z,1.05
2022-10-15T11:09:38.510Z,0.57
2022-10-15T11:12:31.540Z,0.65
2022-10-15T11:15:18.483Z,2.00
2022-10-15T11:17:58.164Z,0.13
2022-10-15T11:20:49.930Z,0.70
2022-10-15T11:23:40.297Z,2.75
2022-10-15T11:26:37.567Z,0.82
2022-10-15T11:29:36.079Z,0.65
2022-10-15T11:32:25.674Z,1.05
2022-10-15T11:35:40.847Z,0.32
2022-10-15T11:38:26.378Z,2.30
2022-10-15T11:41:22.086Z,1.42
2022-10-15T11:44:14.221Z,0.50
2022-10-15T11:46:54.559Z,1.05
2022-10-15T11:49:38.975Z,2.22
2022-10-15T11:52:31.764Z,1.02
2022-10-15T11:55:09.945Z,1.70
2022-10-15T11:57:40.567Z,0.80
2022-10-15T12:00:27.214Z,0.70
2022-10-15T12:03:04.438Z,1.67
2022-10-15T12:05:39.396Z,1.02
2022-10-15T12:08:12.730Z,2.10
2022-10-15T12:11:02.826Z,1.60
2022-10-15T12:13:40.048Z,2.45
2022-10-15T12:16:27.535Z,1.27
2022-10-15T12:19:13.009Z,0.90
2022-10-15T12:21:45.816Z,1.50
2022-10-15T12:24:53.415Z,1.00
2022-10-15T12:27:34.280Z,2.38
2022-10-15T12:30:27.108Z,0.63
2022-10-15T12:32:55.959Z,2.33
2022-10-15T12:35:39.444Z,1.38
2022-10-15T12:38:25.867Z,1.95
2022-10-15T12:41:03.308Z,0.82
2022-10-15T12:43:37.205Z,0.73
2022-10-15T12:46:10.751Z,0.90
2022-10-15T12:48:42.363Z,0.98
2022-10-15T12:51:42.383Z,1.00
2022-10-15T12:54:41.206Z,0.45
2022-10-15T12:57:54.475Z,0.77
2022-10-15T13:00:44.364Z,1.75
2022-10-15T13:03:35.399Z,1.67
2022-10-15T13:06:32.015Z,2.72
2022-10-15T13:09:30.150Z,3.55
2022-10-15T13:12:01.066Z,1.88
2022-10-15T13:14:36.020Z,1.45
2022-10-15T13:17:15.297Z,2.10
2022-10-15T13:19:53.386Z,0.50
2022-10-15T13:22:24.734Z,1.15
2022-10-15T13:24:55.727Z,2.42
2022-10-15T13:27:27.376Z,2.60
2022-10-15T13:30:00.129Z,0.68
2022-10-15T13:32:32.703Z,2.15
2022-10-15T13:35:03.668Z,0.93
2022-10-15T13:37:36.209Z,1.15
2022-10-15T13:40:08.364Z,2.45
2022-10-15T13:42:37.279Z,0.88
2022-10-15T13:45:18.725Z,2.30
2022-10-15T13:47:51.116Z,3.45
2022-10-15T13:50:23.739Z,1.05
2022-10-15T13:52:58.324Z,1.30
2022-10-15T13:55:30.632Z,1.33
2022-10-15T13:58:04.260Z,4.65
2022-10-15T14:00:37.510Z,3.70
2022-10-15T14:03:15.786Z,1.17
2022-10-15T14:05:45.426Z,2.22
2022-10-15T14:08:19.071Z,3.35
2022-10-15T14:10:49.303Z,3.30
2022-10-15T14:13:17.766Z,3.00
2022-10-15T14:15:54.416Z,4.70
2022-10-15T14:18:33.774Z,2.60
2022-10-15T14:21:03.345Z,1.80
2022-10-15T14:23:32.748Z,3.13
2022-10-15T14:26:04.769Z,1.63
2022-10-15T14:28:35.580Z,3.97
2022-10-15T14:31:04.742Z,2.03
2022-10-15T14:33:46.295Z,1.30
2022-10-15T14:36:26.778Z,1.67
2022-10-15T14:38:56.510Z,2.10
2022-10-15T14:41:30.017Z,4.75
2022-10-15T14:44:05.761Z,3.30
2022-10-15T14:46:40.344Z,2.28
2022-10-15T14:49:27.278Z,2.08
2022-10-15T14:51:59.253Z,0.70
2022-10-15T14:54:36.177Z,0.50
2022-10-15T14:57:06.689Z,1.23
2022-10-15T14:59:38.956Z,1.58
2022-10-15T15:02:15.750Z,2.65
2022-10-15T15:05:08.620Z,0.68
2022-10-15T15:07:36.769Z,0.70
2022-10-15T15:10:06.175Z,0.70
2022-10-15T15:12:36.942Z,5.25
2022-10-15T15:15:06.927Z,1.27
2022-10-15T15:17:35.173Z,0.88
2022-10-15T15:22:35.663Z,1.38
2022-10-15T15:25:11.586Z,2.55
2022-10-15T15:27:41.123Z,4.20
2022-10-15T15:30:18.989Z,2.92
2022-10-15T15:32:48.834Z,4.40
2022-10-15T15:35:25.422Z,3.88
2022-10-15T15:37:54.311Z,1.65
2022-10-15T15:40:23.141Z,2.03
2022-10-15T15:42:52.649Z,1.27
2022-10-15T15:45:24.332Z,1.08
2022-10-15T15:47:52.697Z,2.88
2022-10-15T15:50:22.568Z,3.92
2022-10-15T15:52:50.771Z,3.35
2022-10-15T15:55:18.957Z,3.28
2022-10-15T15:57:47.748Z,4.20
2022-10-15T16:00:17.878Z,1.52
2022-10-15T16:02:46.308Z,2.00
2022-10-15T16:05:17.801Z,1.77
2022-10-15T16:07:46.259Z,2.95
2022-10-15T16:10:14.435Z,3.42
2022-10-15T16:12:43.973Z,4.53
2022-10-15T16:15:14.694Z,5.68
2022-10-15T16:17:44.935Z,4.43
2022-10-15T16:20:14.128Z,2.78
2022-10-15T16:22:42.775Z,2.45
2022-10-15T16:25:11.501Z,2.70
2022-10-15T16:27:39.725Z,3.40
2022-10-15T16:30:09.051Z,3.22
2022-10-15T16:32:37.193Z,1.48
2022-10-15T16:35:08.362Z,1.67
2022-10-15T16:37:37.006Z,1.77
2022-10-15T16:40:06.366Z,2.25
2022-10-15T16:42:34.474Z,1.33
2022-10-15T16:45:02.641Z,1.23
2022-10-15T16:47:31.008Z,4.05
2022-10-15T16:49:59.209Z,3.70
2022-10-15T16:52:28.884Z,4.07
2022-10-15T16:54:57.313Z,3.17
2022-10-15T16:57:25.546Z,2.30
2022-10-15T16:59:53.669Z,1.52
2022-10-15T17:02:21.792Z,1.98
2022-10-15T17:04:50.026Z,1.63
2022-10-15T17:07:18.259Z,3.20
2022-10-15T17:12:21.897Z,2.50
2022-10-15T17:14:52.408Z,1.73
2022-10-15T17:17:20.797Z,1.00
2022-10-15T17:19:48.954Z,1.73
2022-10-15T17:22:17.301Z,4.82
2022-10-15T17:24:47.222Z,12.88
2022-10-15T17:27:15.483Z,6.38
2022-10-15T17:29:44.579Z,5.50
2022-10-15T17:32:12.816Z,9.65
2022-10-15T17:34:41.267Z,7.32
2022-10-15T17:37:09.649Z,7.63
2022-10-15T17:39:38.817Z,9.43
2022-10-15T17:42:08.356Z,9.27
2022-10-15T17:44:36.566Z,7.50
2022-10-15T17:47:04.706Z,20.35
2022-10-15T17:49:32.847Z,12.98
2022-10-15T17:52:01.200Z,4.78
2022-10-15T17:54:29.277Z,9.45
2022-10-15T17:56:57.472Z,7.15
2022-10-15T17:59:27.019Z,8.25
2022-10-15T18:01:59.813Z,6.65
2022-10-15T18:04:29.130Z,4.88
2022-10-15T18:06:57.681Z,4.53
2022-10-15T18:09:26.916Z,5.22
2022-10-15T18:12:00.363Z,4.95
2022-10-15T18:14:36.875Z,5.78
2022-10-15T18:17:06.202Z,4.95
2022-10-15T18:19:34.532Z,4.95
2022-10-15T18:22:02.721Z,8.63
2022-10-15T18:24:30.892Z,11.45
2022-10-15T18:27:02.142Z,8.52
2022-10-15T18:29:30.402Z,8.05
2022-10-15T18:31:59.860Z,7.57
2022-10-15T18:34:33.133Z,13.00
2022-10-15T18:37:02.309Z,7.43
2022-10-15T18:39:30.537Z,10.93
2022-10-15T18:41:58.755Z,6.53
2022-10-15T18:44:29.190Z,6.07
2022-10-15T18:46:58.764Z,6.88
2022-10-15T18:49:27.089Z,7.18
2022-10-15T18:51:55.643Z,6.13
2022-10-15T18:54:23.930Z,5.88
2022-10-15T18:56:53.468Z,6.05
2022-10-15T18:59:22.310Z,5.43
2022-10-15T19:01:53.379Z,3.45
2022-10-15T19:04:24.188Z,3.60
2022-10-15T19:06:55.002Z,3.85
2022-10-15T19:09:26.390Z,5.47
2022-10-15T19:11:56.623Z,3.17
2022-10-15T19:14:28.974Z,4.03
2022-10-15T19:16:57.961Z,5.82
2022-10-15T19:19:28.086Z,2.58
2022-10-15T19:21:58.436Z,4.00
2022-10-15T19:24:28.969Z,2.30
2022-10-15T19:26:57.468Z,2.95
2022-10-15T19:29:25.739Z,3.13
2022-10-15T19:31:56.763Z,2.50
2022-10-15T19:34:25.216Z,6.80
2022-10-15T19:36:54.802Z,2.78
2022-10-15T19:39:25.303Z,5.30
2022-10-15T19:41:56.665Z,4.15
2022-10-15T19:44:27.503Z,6.35
2022-10-15T19:46:56.583Z,3.72
2022-10-15T19:49:25.783Z,4.30
2022-10-15T19:51:55.676Z,4.07
2022-10-15T19:56:53.307Z,5.38
2022-10-15T19:59:21.484Z,2.78
2022-10-15T20:01:49.765Z,3.20
2022-10-15T20:04:18.804Z,3.25
2022-10-15T20:06:48.694Z,4.97
2022-10-15T20:09:18.371Z,5.20
2022-10-15T20:11:46.539Z,5.00
2022-10-15T20:14:14.887Z,5.97
2022-10-15T20:16:42.986Z,5.97
2022-10-15T20:19:12.456Z,7.78
2022-10-15T20:21:40.724Z,4.43
2022-10-15T20:24:08.897Z,4.78
2022-10-15T20:26:38.457Z,4.88
2022-10-15T20:29:06.733Z,5.20
2022-10-15T20:31:35.750Z,6.35
2022-10-15T20:34:04.831Z,4.80
2022-10-15T20:36:32.988Z,4.00
2022-10-15T20:39:02.055Z,7.00
2022-10-15T20:41:32.725Z,3.22
2022-10-15T20:44:02.614Z,6.70
2022-10-15T20:46:37.959Z,5.57
2022-10-15T20:49:13.668Z,3.38
2022-10-15T20:51:45.105Z,8.02
2022-10-15T20:54:15.670Z,7.13
2022-10-15T20:56:43.906Z,7.70
2022-10-15T20:59:13.771Z,6.18
2022-10-15T21:01:42.606Z,4.32
2022-10-15T21:04:11.124Z,5.97
2022-10-15T21:06:39.438Z,6.13
2022-10-15T21:09:08.071Z,6.45
2022-10-15T21:11:42.003Z,6.90
2022-10-15T21:14:10.173Z,6.53
2022-10-15T21:16:39.745Z,15.63
2022-10-15T21:19:15.430Z,8.37
2022-10-15T21:21:43.529Z,9.93
2022-10-15T21:24:12.773Z,6.40
2022-10-15T21:26:41.234Z,6.38
2022-10-15T21:29:15.287Z,5.97
2022-10-15T21:31:44.822Z,4.55
2022-10-15T21:34:12.937Z,4.22
2022-10-15T21:36:41.857Z,4.07
2022-10-15T21:39:10.668Z,4.50
2022-10-15T21:41:40.434Z,3.35
2022-10-15T21:44:09.559Z,6.15
2022-10-15T21:46:40.850Z,2.50
2022-10-15T21:49:10.580Z,5.05
2022-10-15T21:51:39.454Z,2.03
2022-10-15T21:54:08.996Z,2.55
2022-10-15T21:56:38.451Z,3.88
2022-10-15T21:59:07.949Z,2.78
2022-10-15T22:01:38.669Z,2.72
2022-10-15T22:04:11.273Z,3.47
2022-10-15T22:06:41.614Z,1.83
2022-10-15T22:09:11.758Z,1.65
2022-10-15T22:11:42.189Z,7.32
2022-10-15T22:14:13.933Z,6.20
2022-10-15T22:16:46.840Z,3.38
2022-10-15T22:19:18.251Z,3.05
2022-10-15T22:21:46.865Z,5.00
2022-10-15T22:24:18.154Z,4.40
2022-10-15T22:26:49.627Z,4.10
2022-10-15T22:29:22.299Z,2.50
2022-10-15T22:31:51.380Z,4.15
2022-10-15T22:34:22.173Z,5.72
2022-10-15T22:36:50.578Z,4.93
2022-10-15T22:39:19.873Z,3.03
2022-10-15T22:41:49.310Z,2.08
2022-10-15T22:44:20.773Z,3.10
2022-10-15T22:46:50.097Z,3.47
2022-10-15T22:49:22.382Z,2.17
2022-10-15T22:51:51.907Z,3.00
2022-10-15T22:54:22.728Z,2.92
2022-10-15T22:56:51.731Z,2.35
2022-10-15T22:59:20.611Z,3.75
2022-10-15T23:01:48.833Z,2.92
2022-10-15T23:04:17.740Z,2.00
2022-10-15T23:06:47.210Z,4.05
2022-10-15T23:09:17.824Z,3.00
2022-10-15T23:11:46.571Z,3.85
2022-10-15T23:14:17.018Z,2.83
2022-10-15T23:16:47.712Z,6.88
2022-10-15T23:19:18.611Z,2.97
2022-10-15T23:21:50.485Z,4.00
2022-10-15T23:24:20.854Z,3.15
2022-10-15T23:26:49.328Z,2.55
2022-10-15T23:29:19.959Z,4.40
2022-10-15T23:31:49.133Z,3.35
2022-10-15T23:34:21.516Z,2.97
2022-10-15T23:36:51.968Z,2.78
2022-10-15T23:39:23.425Z,1.52
2022-10-15T23:41:52.090Z,2.05
2022-10-15T23:44:20.408Z,3.92
2022-10-15T23:46:48.552Z,3.83
2022-10-15T23:49:17.035Z,5.40
2022-10-15T23:51:45.425Z,2.47
2022-10-15T23:54:18.816Z,2.05
2022-10-15T23:56:47.812Z,4.22
2022-10-15T23:59:16.998Z,2.30
